Time;durP1;ratioP1;P1;durP2;ratioP2;P2;SDS_P1;SDS_P2;PMS_P1;PMS_P2;Temp;Humidity;BMP_temperature;BMP_pressure;BME280_temperature;BME280_humidity;BME280_pressure;Samples;Min_cycle;Max_cycle;Signal;HPM_P1;HPM_P2
2021/10/01 00:01:32;;;;;;;12.57;4.38;;;;;;;14.74;50.69;96175.53;4948479;28;20050;-76
2021/10/01 00:03:58;;;;;;;5.30;4.70;;;;;;;14.71;50.29;96170.81;4948354;28;20513;-75
2021/10/01 00:06:23;;;;;;;5.28;4.25;;;;;;;14.74;50.75;96172.84;4950199;28;20393;-74
2021/10/01 00:08:49;;;;;;;8.13;5.20;;;;;;;14.65;50.96;96162.09;4948348;28;20043;-75
2021/10/01 00:11:14;;;;;;;5.65;5.10;;;;;;;14.67;50.41;96170.63;4954961;28;20114;-75
2021/10/01 00:13:40;;;;;;;9.20;5.95;;;;;;;14.63;50.66;96163.50;4959419;28;20028;-74
2021/10/01 00:16:05;;;;;;;5.95;5.45;;;;;;;14.66;50.65;96174.41;4945155;28;20128;-74
2021/10/01 00:18:31;;;;;;;9.85;5.88;;;;;;;14.58;50.58;96156.38;4943439;28;20040;-74
2021/10/01 00:20:58;;;;;;;8.45;4.53;;;;;;;14.55;50.86;96152.44;4936137;29;20035;-74
2021/10/01 00:23:23;;;;;;;6.75;5.70;;;;;;;14.52;50.93;96149.56;4952489;28;20019;-75
2021/10/01 00:25:49;;;;;;;6.22;4.88;;;;;;;14.57;50.74;96160.94;4957190;28;20389;-74
2021/10/01 00:28:14;;;;;;;6.15;4.82;;;;;;;14.55;50.76;96155.09;4951325;28;20044;-76
2021/10/01 00:30:39;;;;;;;5.38;4.95;;;;;;;14.53;50.51;96151.13;4947918;28;20474;-74
2021/10/01 00:33:05;;;;;;;8.77;4.78;;;;;;;14.54;51.03;96150.06;4939482;28;20031;-74
2021/10/01 00:35:30;;;;;;;6.45;5.72;;;;;;;14.55;50.95;96151.63;4951532;28;20035;-74
2021/10/01 00:37:58;;;;;;;6.55;5.95;;;;;;;14.46;50.74;96140.03;4953440;29;20031;-74
2021/10/01 00:40:24;;;;;;;7.45;6.65;;;;;;;14.41;50.92;96132.91;4953079;28;20042;-74
2021/10/01 00:42:49;;;;;;;7.35;6.53;;;;;;;14.42;51.22;96131.03;4951093;28;20110;-75
2021/10/01 00:45:15;;;;;;;8.88;6.63;;;;;;;14.34;51.01;96127.22;4967247;28;20043;-75
2021/10/01 00:47:40;;;;;;;7.47;6.78;;;;;;;14.40;51.01;96136.69;4970146;28;20031;-75
2021/10/01 00:50:06;;;;;;;7.07;5.97;;;;;;;14.09;51.01;96093.00;4971508;28;20027;-75
2021/10/01 00:52:32;;;;;;;8.77;6.00;;;;;;;14.37;51.23;96145.31;4970935;28;20126;-75
2021/10/01 00:54:59;;;;;;;7.15;6.45;;;;;;;14.33;51.24;96133.66;4968949;28;20485;-75
2021/10/01 00:57:24;;;;;;;8.57;6.45;;;;;;;14.22;51.09;96113.56;4950870;28;20074;-75
2021/10/01 00:59:49;;;;;;;9.15;6.30;;;;;;;14.31;51.05;96125.13;4949218;28;20506;-75
2021/10/01 01:02:15;;;;;;;8.20;6.13;;;;;;;14.22;50.92;96113.56;4952253;29;20027;-74
2021/10/01 01:04:44;;;;;;;9.10;6.53;;;;;;;14.34;50.96;96124.53;4951033;28;20043;-74
2021/10/01 01:07:17;;;;;;;5.55;5.05;;;;;;;14.32;51.13;96132.06;4950441;28;20039;-75
2021/10/01 01:10:11;;;;;;;6.50;5.32;;;;;;;14.32;50.82;96132.06;4951415;28;20058;-74
2021/10/01 01:12:58;;;;;;;7.20;6.45;;;;;;;14.25;50.93;96118.31;4951088;28;20074;-74
2021/10/01 01:15:40;;;;;;;6.47;5.88;;;;;;;14.17;51.04;96119.03;4950204;28;20122;-76
2021/10/01 01:18:13;;;;;;;6.65;5.45;;;;;;;14.13;51.40;96118.06;4950283;28;20043;-75
2021/10/01 01:20:50;;;;;;;5.80;4.80;;;;;;;14.15;51.25;96123.91;4951163;28;20039;-75
2021/10/01 01:23:52;;;;;;;5.15;4.63;;;;;;;14.13;51.27;96124.22;4953131;29;20026;-73
2021/10/01 01:26:29;;;;;;;8.70;6.47;;;;;;;14.10;51.43;96107.97;4952862;28;20699;-75
2021/10/01 01:29:35;;;;;;;9.70;6.47;;;;;;;14.03;51.50;96109.16;4950541;28;20106;-75
2021/10/01 01:32:09;;;;;;;6.22;5.05;;;;;;;14.01;51.29;96115.91;4964921;28;20078;-75
2021/10/01 01:34:39;;;;;;;6.70;5.80;;;;;;;13.94;51.44;96097.59;4949387;28;20044;-74
2021/10/01 01:37:27;;;;;;;5.57;4.45;;;;;;;13.97;51.49;96104.22;4951145;28;20039;-74
2021/10/01 01:39:55;;;;;;;8.63;4.90;;;;;;;13.91;51.10;96098.19;4950512;28;20461;-76
2021/10/01 01:42:22;;;;;;;11.13;6.60;;;;;;;13.89;51.09;96097.72;4949211;28;20528;-75
2021/10/01 01:44:50;;;;;;;6.05;5.45;;;;;;;13.70;51.41;96070.31;4953990;28;20067;-76
2021/10/01 01:47:16;;;;;;;5.35;4.85;;;;;;;13.90;51.31;96087.81;4971852;28;20484;-74
2021/10/01 01:49:43;;;;;;;8.52;5.03;;;;;;;13.91;51.52;96086.69;4931460;28;1141010;-75
2021/10/01 01:52:09;;;;;;;4.90;4.45;;;;;;;13.90;51.46;96083.25;4986026;28;20066;-75
2021/10/01 01:54:35;;;;;;;5.40;3.75;;;;;;;13.86;51.72;96076.91;4969398;28;20085;-74
2021/10/01 01:57:02;;;;;;;5.68;3.00;;;;;;;13.86;51.60;96062.75;4954923;28;20035;-74
2021/10/01 01:59:29;;;;;;;7.90;4.75;;;;;;;13.87;51.85;96070.50;4933161;28;20031;-75
2021/10/01 02:01:57;;;;;;;5.50;4.43;;;;;;;13.92;51.73;96078.41;4953298;29;20553;-75
2021/10/01 02:04:25;;;;;;;6.43;4.20;;;;;;;13.83;51.67;96072.19;4949730;28;20031;-74
2021/10/01 02:06:52;;;;;;;4.18;3.88;;;;;;;13.86;51.64;96071.56;4951142;28;20484;-74
2021/10/01 02:09:19;;;;;;;8.02;4.10;;;;;;;13.85;51.79;96077.22;4951041;28;20057;-74
2021/10/01 02:11:47;;;;;;;4.78;4.03;;;;;;;13.71;51.42;96053.19;4965776;28;20482;-75
2021/10/01 02:14:25;;;;;;;6.55;4.30;;;;;;;13.81;51.68;96068.22;4967197;28;20024;-74
2021/10/01 02:16:51;;;;;;;8.85;3.60;;;;;;;13.75;51.47;96054.16;4966285;28;20118;-75
2021/10/01 02:19:19;;;;;;;7.05;4.50;;;;;;;13.76;51.46;96063.75;4965408;28;20099;-74
2021/10/01 02:21:46;;;;;;;4.90;3.95;;;;;;;13.73;51.47;96062.50;4946445;28;20494;-74
2021/10/01 02:24:12;;;;;;;6.38;4.95;;;;;;;13.64;51.55;96050.13;4938173;28;20090;-74
2021/10/01 02:26:42;;;;;;;5.03;4.60;;;;;;;13.59;51.39;96045.69;4955856;28;20055;-75
2021/10/01 02:29:16;;;;;;;6.90;4.40;;;;;;;13.68;51.41;96051.13;4949766;28;20023;-74
2021/10/01 02:31:53;;;;;;;4.30;3.80;;;;;;;13.65;51.49;96054.38;4949232;28;20496;-73
2021/10/01 02:34:24;;;;;;;4.60;4.20;;;;;;;13.61;51.56;96045.38;4950060;28;20039;-74
2021/10/01 02:36:50;;;;;;;5.20;4.70;;;;;;;13.60;51.82;96047.25;4938477;28;20434;-74
2021/10/01 02:39:15;;;;;;;4.75;3.97;;;;;;;13.59;51.57;96043.00;4935682;28;20119;-75
2021/10/01 02:41:41;;;;;;;4.72;4.00;;;;;;;13.60;51.59;96046.47;4955749;28;20047;-74
2021/10/01 02:44:06;;;;;;;4.00;3.25;;;;;;;13.49;51.56;96030.66;4966833;28;20622;-74
2021/10/01 02:46:31;;;;;;;4.50;3.50;;;;;;;13.53;51.53;96037.00;4932844;28;20059;-74
2021/10/01 02:48:57;;;;;;;5.93;4.18;;;;;;;13.56;51.43;96037.47;4942489;28;20051;-75
2021/10/01 02:51:25;;;;;;;5.10;4.43;;;;;;;13.56;51.67;96029.44;4942745;28;20367;-74
2021/10/01 02:53:56;;;;;;;5.93;4.03;;;;;;;13.63;51.61;96040.53;4935098;28;20114;-75
2021/10/01 02:56:29;;;;;;;7.63;4.63;;;;;;;13.62;51.50;96029.06;4955541;28;20189;-74
2021/10/01 02:58:57;;;;;;;4.57;3.80;;;;;;;13.63;51.28;96025.28;4951487;29;20027;-74
2021/10/01 03:01:26;;;;;;;5.40;3.83;;;;;;;13.68;51.43;96027.84;4949044;28;20048;-74
2021/10/01 03:03:53;;;;;;;7.30;4.10;;;;;;;13.65;51.49;96022.31;4936468;28;20050;-75
2021/10/01 03:06:20;;;;;;;5.25;4.78;;;;;;;13.64;51.58;96016.16;4939060;28;20090;-74
2021/10/01 03:08:48;;;;;;;5.53;3.70;;;;;;;13.64;51.56;96012.72;4949592;28;20446;-74
2021/10/01 03:11:15;;;;;;;3.25;2.95;;;;;;;13.70;51.33;96020.31;4956284;28;20039;-74
2021/10/01 03:13:46;;;;;;;5.03;4.05;;;;;;;13.64;51.34;96008.16;4949528;28;20390;-74
2021/10/01 03:16:12;;;;;;;5.18;4.35;;;;;;;13.68;51.34;96014.47;4948617;28;20489;-74
2021/10/01 03:18:38;;;;;;;5.15;4.60;;;;;;;13.62;51.30;96007.69;4949625;28;20116;-74
2021/10/01 03:21:05;;;;;;;5.72;4.28;;;;;;;13.65;51.55;96016.97;4964656;28;20052;-74
2021/10/01 03:23:31;;;;;;;6.10;4.07;;;;;;;13.60;51.86;96006.38;4949602;28;20035;-74
2021/10/01 03:25:57;;;;;;;6.32;4.72;;;;;;;13.56;51.59;95995.50;4954777;28;20029;-74
2021/10/01 03:28:23;;;;;;;4.97;4.57;;;;;;;13.55;51.80;95985.09;4950642;28;20078;-74
2021/10/01 03:30:50;;;;;;;4.40;4.03;;;;;;;13.65;51.85;96001.72;4948494;28;20121;-75
2021/10/01 03:33:15;;;;;;;6.40;4.45;;;;;;;13.57;51.89;95985.63;4949836;28;20182;-75
2021/10/01 03:35:42;;;;;;;5.40;4.60;;;;;;;13.62;51.79;95988.16;4950494;28;20658;-74
2021/10/01 03:38:13;;;;;;;5.20;4.50;;;;;;;13.67;51.71;95998.75;4952121;28;20106;-75
2021/10/01 03:40:45;;;;;;;5.40;3.72;;;;;;;13.62;51.53;95996.19;4949032;28;20042;-74
2021/10/01 03:43:11;;;;;;;5.18;3.55;;;;;;;13.64;51.57;95994.78;4936344;28;20040;-75
2021/10/01 03:45:36;;;;;;;5.60;4.75;;;;;;;13.64;51.33;95994.00;4945715;28;20039;-75
2021/10/01 03:48:03;;;;;;;8.32;5.32;;;;;;;13.69;51.36;95992.00;4941242;28;20409;-75
2021/10/01 03:50:30;;;;;;;6.07;4.40;;;;;;;13.63;51.38;95987.06;4969553;28;20027;-75
2021/10/01 03:52:55;;;;;;;4.20;3.80;;;;;;;13.61;51.11;95991.91;4974323;28;20041;-76
2021/10/01 03:55:21;;;;;;;6.95;4.60;;;;;;;13.63;51.38;95992.41;4971822;28;20397;-75
2021/10/01 03:57:48;;;;;;;6.32;4.55;;;;;;;13.49;51.15;95974.53;4952894;28;20044;-75
2021/10/01 04:00:14;;;;;;;5.78;4.43;;;;;;;13.53;51.39;95978.19;4948873;28;20040;-73
2021/10/01 04:02:40;;;;;;;4.78;3.75;;;;;;;13.45;51.56;95965.53;4955409;28;20046;-73
2021/10/01 04:05:06;;;;;;;4.53;4.13;;;;;;;13.56;51.33;95976.00;4975187;28;20073;-78
2021/10/01 04:07:31;;;;;;;4.53;4.13;;;;;;;13.57;51.12;95982.94;4974083;28;20134;-76
2021/10/01 04:09:56;;;;;;;5.53;5.00;;;;;;;13.45;51.46;95965.53;4972451;28;20043;-77
2021/10/01 04:12:23;;;;;;;11.02;4.78;;;;;;;13.56;51.46;95976.78;4974762;28;20039;-79
2021/10/01 04:14:49;;;;;;;4.72;3.15;;;;;;;13.52;51.41;95970.47;4939303;28;20040;-78
2021/10/01 04:17:16;;;;;;;4.65;3.50;;;;;;;13.43;51.58;95967.72;4956876;29;20038;-77
2021/10/01 04:19:42;;;;;;;4.43;3.67;;;;;;;13.53;51.75;95980.84;4953407;28;20043;-72
2021/10/01 04:22:08;;;;;;;4.03;3.50;;;;;;;13.50;51.68;95972.66;4966814;28;20039;-75
2021/10/01 04:24:33;;;;;;;4.93;3.85;;;;;;;13.45;51.63;95948.72;4953247;28;20035;-69
2021/10/01 04:26:58;;;;;;;5.93;3.75;;;;;;;13.39;51.54;95941.91;4954283;28;20035;-75
2021/10/01 04:29:24;;;;;;;5.80;4.78;;;;;;;13.58;51.34;95971.94;4950569;28;20035;-71
2021/10/01 04:31:49;;;;;;;3.97;3.65;;;;;;;13.44;51.42;95955.94;4954685;28;20027;-73
2021/10/01 04:34:15;;;;;;;4.68;4.25;;;;;;;13.47;51.33;95959.91;4952015;28;20039;-73
2021/10/01 04:36:40;;;;;;;6.18;4.38;;;;;;;13.27;51.35;95943.22;4952368;28;20039;-71
2021/10/01 04:39:06;;;;;;;6.05;4.35;;;;;;;13.35;51.53;95952.41;4966337;28;20493;-71
2021/10/01 04:41:32;;;;;;;9.00;4.03;;;;;;;13.42;51.55;95960.81;4951925;28;20111;-75
2021/10/01 04:43:57;;;;;;;4.40;3.60;;;;;;;13.31;51.58;95954.09;4953248;29;20027;-72
2021/10/01 04:46:23;;;;;;;5.63;5.10;;;;;;;13.38;51.60;95959.81;4952141;28;20453;-72
2021/10/01 04:48:49;;;;;;;7.90;4.70;;;;;;;13.28;51.44;95949.34;4963498;28;20054;-72
2021/10/01 04:51:16;;;;;;;6.05;4.57;;;;;;;13.28;51.60;95954.69;4971369;28;20035;-72
2021/10/01 04:53:41;;;;;;;5.47;4.97;;;;;;;13.30;51.49;95962.41;4970763;28;20117;-71
2021/10/01 04:56:07;;;;;;;9.07;5.88;;;;;;;13.29;51.36;95955.50;4972078;28;20026;-72
2021/10/01 04:58:32;;;;;;;8.48;4.22;;;;;;;13.23;51.58;95962.81;4943442;28;20474;-72
2021/10/01 05:01:04;;;;;;;10.95;5.90;;;;;;;13.25;51.74;95958.75;4964480;28;20038;-72
2021/10/01 05:03:30;;;;;;;5.43;4.68;;;;;;;13.22;51.55;95959.38;4951255;28;20126;-72
2021/10/01 05:05:56;;;;;;;8.30;3.92;;;;;;;13.26;51.53;95965.69;4951490;28;20118;-72
2021/10/01 05:08:21;;;;;;;6.80;5.70;;;;;;;13.19;51.71;95962.59;4951644;28;20102;-72
2021/10/01 05:10:47;;;;;;;7.25;4.65;;;;;;;13.15;51.77;95956.25;4952906;28;20069;-72
2021/10/01 05:13:12;;;;;;;6.45;4.38;;;;;;;13.21;51.60;95960.47;4951110;28;20043;-72
2021/10/01 05:15:42;;;;;;;6.20;4.82;;;;;;;13.18;51.67;95950.34;4951742;28;20035;-72
2021/10/01 05:18:09;;;;;;;5.57;4.15;;;;;;;13.23;51.56;95963.63;4951583;28;20094;-72
2021/10/01 05:20:35;;;;;;;7.72;5.07;;;;;;;13.18;51.65;95953.00;4951026;28;20110;-73
2021/10/01 05:23:01;;;;;;;6.43;5.30;;;;;;;13.27;51.41;95961.94;4951465;28;20023;-72
2021/10/01 05:25:26;;;;;;;6.38;4.10;;;;;;;13.31;51.43;95964.78;4982035;28;20671;-72
2021/10/01 05:27:55;;;;;;;6.47;4.93;;;;;;;13.36;51.38;95958.53;4955427;28;20082;-73
2021/10/01 05:30:21;;;;;;;8.45;4.40;;;;;;;13.40;51.47;95967.53;4940725;28;20046;-72
2021/10/01 05:32:46;;;;;;;6.50;5.63;;;;;;;13.41;51.60;95959.22;4954099;28;20034;-71
2021/10/01 05:35:12;;;;;;;5.45;4.93;;;;;;;13.49;51.72;95961.16;4971989;28;20065;-71
2021/10/01 05:37:37;;;;;;;6.88;5.28;;;;;;;13.46;51.43;95953.78;4968860;28;20505;-71
2021/10/01 05:40:04;;;;;;;7.95;5.40;;;;;;;13.56;51.59;95952.72;4969669;28;20567;-72
2021/10/01 05:42:29;;;;;;;7.28;6.07;;;;;;;13.61;51.55;95957.16;4964522;28;20500;-71
2021/10/01 05:44:54;;;;;;;8.43;5.63;;;;;;;13.64;51.60;95945.88;4950534;28;20186;-72
2021/10/01 05:47:20;;;;;;;8.38;6.13;;;;;;;13.75;51.15;95956.03;4950803;28;20024;-74
2021/10/01 05:49:47;;;;;;;7.60;4.88;;;;;;;13.73;51.50;95947.53;4967059;28;20031;-71
2021/10/01 05:54:50;;;;;;;6.20;5.13;;;;;;;13.91;51.13;95944.97;4949480;28;20047;-72
2021/10/01 05:57:15;;;;;;;12.57;6.00;;;;;;;14.03;50.92;95940.66;4957072;28;20050;-72
2021/10/01 05:59:45;;;;;;;7.55;4.57;;;;;;;14.14;50.95;95949.19;4948448;28;20031;-72
2021/10/01 06:02:17;;;;;;;10.05;4.50;;;;;;;14.20;50.70;95947.19;4950695;29;20031;-71
2021/10/01 06:04:43;;;;;;;;;;;;;;;14.39;50.91;95952.31;4969775;28;20604;-71
2021/10/01 06:07:09;;;;;;;8.32;4.72;;;;;;;14.43;50.20;95946.03;4968497;28;19918;-71
2021/10/01 06:09:34;;;;;;;8.27;4.28;;;;;;;14.55;50.13;95948.94;4969148;28;20035;-71
2021/10/01 06:12:00;;;;;;;5.15;3.78;;;;;;;14.64;50.21;95942.81;4969154;28;20488;-71
2021/10/01 06:14:26;;;;;;;6.72;3.80;;;;;;;14.75;50.16;95936.91;4950030;28;20016;-71
2021/10/01 06:16:53;;;;;;;4.47;3.42;;;;;;;15.01;49.67;95955.72;4937696;29;20071;-72
2021/10/01 06:19:20;;;;;;;3.10;2.80;;;;;;;15.19;49.60;95956.53;4944162;28;20115;-71
2021/10/01 06:21:47;;;;;;;9.10;3.50;;;;;;;15.20;49.80;95947.41;4949578;28;20131;-71
2021/10/01 06:24:13;;;;;;;5.35;3.05;;;;;;;15.43;49.26;95945.38;4949549;28;20505;-71
2021/10/01 06:26:39;;;;;;;4.72;3.00;;;;;;;15.60;48.77;95947.25;4951769;28;20150;-71
2021/10/01 06:29:04;;;;;;;4.43;2.83;;;;;;;15.74;48.76;95955.19;4954727;28;20023;-71
2021/10/01 06:31:30;;;;;;;5.05;2.95;;;;;;;15.89;48.68;95960.06;4948355;28;20063;-71
2021/10/01 06:33:55;;;;;;;4.35;3.00;;;;;;;15.99;48.50;95959.72;4944715;28;20138;-72
2021/10/01 06:36:23;;;;;;;3.92;2.92;;;;;;;16.09;48.09;95950.56;4938695;28;20210;-71
2021/10/01 06:38:49;;;;;;;6.97;3.08;;;;;;;16.18;47.96;95951.34;4947826;28;20041;-71
2021/10/01 06:41:14;;;;;;;6.00;2.70;;;;;;;16.27;47.74;95953.97;4951673;28;20555;-72
2021/10/01 06:43:41;;;;;;;7.72;2.88;;;;;;;16.32;47.63;95951.13;4953001;28;20031;-72
2021/10/01 06:46:16;;;;;;;6.95;3.10;;;;;;;16.41;47.21;95943.84;4961568;28;20565;-71
2021/10/01 06:48:52;;;;;;;5.47;3.10;;;;;;;16.52;47.40;95946.94;4964144;28;20054;-72
2021/10/01 07:23:49;;;;;;;4.57;2.78;;;;;;;17.62;46.05;95943.19;4968659;28;20594;-79
2021/10/01 08:20:41;;;;;;;4.72;1.50;;;;;;;19.60;41.65;95937.72;4952419;28;20116;-73
2021/10/01 08:23:07;;;;;;;2.22;1.25;;;;;;;19.09;42.81;95929.25;4954107;28;20534;-73
2021/10/01 08:25:33;;;;;;;3.88;1.10;;;;;;;19.05;42.49;95894.09;4952598;28;20054;-72
2021/10/01 08:27:59;;;;;;;3.13;1.70;;;;;;;19.55;41.47;95924.44;4953596;28;20418;-73
2021/10/01 08:30:25;;;;;;;2.03;1.83;;;;;;;19.80;41.50;95927.88;4966753;28;20847;-73
2021/10/01 08:32:51;;;;;;;2.15;1.23;;;;;;;20.08;40.87;95925.16;4955855;28;20133;-73
2021/10/01 08:35:21;;;;;;;2.08;1.13;;;;;;;20.03;41.01;95920.03;4973188;28;20080;-73
2021/10/01 08:37:48;;;;;;;2.05;1.33;;;;;;;20.13;40.44;95923.00;4972258;28;20564;-80
2021/10/01 08:40:14;;;;;;;3.97;1.35;;;;;;;20.26;40.30;95900.19;4969272;28;20567;-72
2021/10/01 08:42:40;;;;;;;2.88;1.20;;;;;;;20.11;39.77;95897.47;4964370;28;20151;-77
2021/10/01 08:45:10;;;;;;;4.18;1.30;;;;;;;20.04;40.04;95927.78;4935795;29;20105;-77
2021/10/01 08:47:36;;;;;;;3.03;1.50;;;;;;;20.29;39.85;95893.31;4955975;28;20058;-77
2021/10/01 08:50:06;;;;;;;1.83;1.25;;;;;;;20.59;39.36;95915.31;4973142;28;20109;-77
2021/10/01 08:52:32;;;;;;;3.67;1.13;;;;;;;20.54;39.11;95909.38;4972229;28;20489;-77
2021/10/01 08:54:59;;;;;;;3.85;1.40;;;;;;;20.58;39.29;95926.47;4971065;28;20125;-77
2021/10/01 08:57:25;;;;;;;2.15;1.23;;;;;;;20.78;39.07;95917.31;4967789;28;20548;-74
2021/10/01 08:59:51;;;;;;;2.42;1.45;;;;;;;20.53;39.73;95924.03;4952237;28;20039;-76
2021/10/01 09:02:17;;;;;;;1.60;1.20;;;;;;;20.72;39.40;95914.06;4936496;28;20028;-71
2021/10/01 09:04:43;;;;;;;3.35;1.83;;;;;;;20.76;39.00;95901.44;4951403;28;20513;-72
2021/10/01 09:07:08;;;;;;;2.42;1.85;;;;;;;20.88;38.67;95878.94;4951642;28;20114;-72
2021/10/01 09:09:36;;;;;;;3.08;1.60;;;;;;;20.76;38.41;95895.25;4950277;28;20089;-74
2021/10/01 09:12:03;;;;;;;3.42;1.67;;;;;;;20.58;38.91;95902.94;4951327;28;20122;-74
2021/10/01 09:14:28;;;;;;;3.00;1.92;;;;;;;20.97;38.37;95905.75;4958611;28;20483;-73
2021/10/01 09:16:54;;;;;;;4.60;1.80;;;;;;;21.14;38.28;95902.69;4952856;29;20085;-73
2021/10/01 09:19:20;;;;;;;4.50;2.38;;;;;;;20.67;38.32;95892.72;4951060;28;20035;-73
2021/10/01 09:21:48;;;;;;;2.65;1.67;;;;;;;20.95;38.46;95891.81;4951341;28;20042;-74
2021/10/01 09:24:16;;;;;;;3.97;1.90;;;;;;;21.29;38.09;95909.16;4944471;28;20050;-73
2021/10/01 09:26:51;;;;;;;4.70;1.77;;;;;;;21.49;37.76;95899.19;4935630;28;20171;-77
2021/10/01 09:29:26;;;;;;;1.85;1.50;;;;;;;21.58;37.59;95905.19;4960487;28;20035;-73
2021/10/01 09:31:52;;;;;;;1.90;1.33;;;;;;;;;;4951660;28;20035;-73
2021/10/01 09:34:23;;;;;;;2.10;1.15;;;;;;;21.54;36.29;95902.38;4956750;28;20089;-73
2021/10/01 09:37:30;;;;;;;2.10;1.77;;;;;;;21.69;36.86;95899.97;4946508;28;20625;-72
2021/10/01 09:39:58;;;;;;;3.25;1.52;;;;;;;21.57;36.69;95898.19;4951552;28;20102;-73
2021/10/01 09:42:29;;;;;;;2.17;1.60;;;;;;;21.68;37.00;95885.66;4945670;28;20046;-72
2021/10/01 09:45:01;;;;;;;3.10;1.40;;;;;;;21.59;36.67;95893.22;4936034;28;20126;-73
2021/10/01 09:47:33;;;;;;;4.68;1.40;;;;;;;20.90;37.40;95860.41;4950532;28;20090;-73
2021/10/01 09:50:06;;;;;;;1.63;1.48;;;;;;;21.59;36.86;95885.09;4950520;28;20058;-73
2021/10/01 09:52:46;;;;;;;2.58;1.52;;;;;;;21.47;36.85;95869.00;4950657;28;20387;-72
2021/10/01 09:55:17;;;;;;;3.55;1.60;;;;;;;21.65;37.09;95877.47;4950799;28;20094;-72
2021/10/01 09:58:03;;;;;;;4.97;1.55;;;;;;;21.89;36.65;95873.66;4953743;28;20043;-72
2021/10/01 10:00:50;;;;;;;3.28;1.80;;;;;;;21.92;36.53;95859.41;4950286;28;20374;-72
2021/10/01 10:03:21;;;;;;;4.72;1.50;;;;;;;21.60;36.71;95865.03;4949974;28;20053;-73
2021/10/01 10:06:07;;;;;;;4.95;1.30;;;;;;;22.02;36.69;95853.41;4950610;28;20043;-73
2021/10/01 10:08:37;;;;;;;1.88;0.95;;;;;;;21.93;36.15;95852.84;4965326;28;20401;-73
2021/10/01 10:11:11;;;;;;;1.17;0.93;;;;;;;21.93;36.28;95850.94;4952062;29;20094;-73
2021/10/01 10:13:44;;;;;;;1.95;1.10;;;;;;;21.76;36.56;95854.88;4955407;28;20043;-73
2021/10/01 10:16:13;;;;;;;3.58;1.10;;;;;;;21.59;37.77;95832.88;4949913;28;20067;-72
2021/10/01 10:18:39;;;;;;;4.88;1.10;;;;;;;21.68;37.19;95847.75;4949301;28;20564;-72
2021/10/01 10:21:04;;;;;;;2.30;0.80;;;;;;;22.24;36.53;95854.59;4955912;28;20042;-72
2021/10/01 10:23:30;;;;;;;2.45;0.90;;;;;;;22.46;36.17;95836.75;4968814;28;20038;-72
2021/10/01 10:25:56;;;;;;;2.75;0.95;;;;;;;22.61;35.44;95841.25;4972322;28;20027;-73
2021/10/01 10:28:21;;;;;;;1.20;0.80;;;;;;;22.63;35.00;95830.84;4968036;28;20148;-77
2021/10/01 10:30:51;;;;;;;1.00;0.50;;;;;;;22.68;34.55;95840.59;4945630;28;20039;-82
2021/10/01 10:33:38;;;;;;;0.75;0.55;;;;;;;22.63;34.79;95836.25;4940305;28;20046;-81
2021/10/01 10:36:41;;;;;;;3.55;1.00;;;;;;;22.74;35.12;95834.47;4951780;28;20047;-83
2021/10/01 10:39:09;;;;;;;1.25;0.85;;;;;;;22.77;34.72;95836.44;4950478;28;20059;-80
2021/10/01 10:41:35;;;;;;;0.82;0.70;;;;;;;22.85;34.39;95823.78;4952468;28;20484;-82
2021/10/01 10:44:01;;;;;;;2.63;0.75;;;;;;;22.81;35.22;95817.53;4953169;28;20031;-82
2021/10/01 10:46:35;;;;;;;1.30;0.68;;;;;;;22.96;35.06;95823.97;4967500;28;20390;-77
2021/10/01 10:49:24;;;;;;;0.95;0.50;;;;;;;23.03;35.62;95824.03;4950820;28;20051;-83
2021/10/01 10:52:15;;;;;;;1.58;0.60;;;;;;;23.23;35.26;95811.91;4951360;28;20043;-83
2021/10/01 10:55:11;;;;;;;2.97;0.73;;;;;;;23.18;34.71;95809.50;4951631;28;20130;-80
2021/10/01 10:57:37;;;;;;;2.05;0.70;;;;;;;22.45;35.33;95802.66;4951809;28;20063;-84
2021/10/01 11:00:28;;;;;;;1.70;0.70;;;;;;;22.80;35.89;95799.69;4951080;28;20509;-80
2021/10/01 11:03:17;;;;;;;3.90;1.03;;;;;;;23.24;34.63;95804.56;4940899;28;20054;-80
2021/10/01 11:05:43;;;;;;;1.40;0.60;;;;;;;23.28;34.43;95783.66;4949749;28;20047;-76
2021/10/01 11:08:21;;;;;;;3.13;0.73;;;;;;;23.46;34.15;95786.59;4952086;28;20138;-75
2021/10/01 11:10:48;;;;;;;2.45;1.00;;;;;;;23.17;34.46;95797.09;4950960;28;20074;-82
2021/10/01 11:13:22;;;;;;;2.35;0.68;;;;;;;23.39;34.72;95791.91;4952964;28;20122;-72
2021/10/01 11:16:09;;;;;;;1.48;0.73;;;;;;;23.69;34.31;95787.25;4949493;28;20043;-79
2021/10/01 11:18:44;;;;;;;2.05;0.60;;;;;;;23.85;33.69;95787.81;4938779;28;20585;-71
2021/10/01 11:21:26;;;;;;;1.65;0.60;;;;;;;23.52;34.28;95779.66;4938143;28;20080;-74
2021/10/01 11:24:06;;;;;;;1.77;0.60;;;;;;;23.64;34.13;95784.84;4964638;28;20043;-75
2021/10/01 11:26:34;;;;;;;1.38;0.85;;;;;;;24.03;34.21;95779.03;4950017;28;20175;-79
2021/10/01 11:29:02;;;;;;;1.55;0.70;;;;;;;24.11;33.72;95777.94;4953757;28;20096;-73
2021/10/01 11:31:38;;;;;;;1.48;0.73;;;;;;;23.95;33.18;95752.94;4949740;28;20034;-76
2021/10/01 11:34:04;;;;;;;1.38;0.70;;;;;;;23.53;34.65;95763.00;4950577;28;20047;-71
2021/10/01 11:36:31;;;;;;;1.30;0.60;;;;;;;24.21;33.98;95762.84;4951070;28;20464;-82
2021/10/01 11:39:22;;;;;;;1.90;0.85;;;;;;;24.30;33.34;95753.22;4949397;28;20162;-82
2021/10/01 11:41:48;;;;;;;0.90;0.57;;;;;;;24.06;33.01;95721.22;4951402;28;20375;-75
2021/10/01 11:44:15;;;;;;;1.00;0.77;;;;;;;24.00;32.98;95737.06;4955627;28;20039;-73
2021/10/01 11:46:43;;;;;;;0.63;0.60;;;;;;;24.11;33.10;95745.34;4949753;28;20035;-74
2021/10/01 11:49:20;;;;;;;0.80;0.60;;;;;;;24.41;32.67;95739.72;4961861;28;20046;-74
2021/10/01 11:52:05;;;;;;;1.88;0.50;;;;;;;24.35;32.50;95739.31;4983532;28;20039;-75
2021/10/01 11:54:32;;;;;;;1.52;0.80;;;;;;;24.33;32.83;95733.44;4968530;28;20050;-73
2021/10/01 11:57:00;;;;;;;0.90;0.90;;;;;;;24.29;32.72;95723.72;4968314;28;20105;-74
2021/10/01 11:59:50;;;;;;;1.95;0.77;;;;;;;24.30;33.10;95726.03;4955186;28;20035;-74
2021/10/01 12:02:29;;;;;;;1.25;0.50;;;;;;;24.52;32.65;95723.50;4950740;28;20130;-73
2021/10/01 12:04:54;;;;;;;1.55;0.77;;;;;;;24.60;32.73;95711.50;4949616;28;20035;-74
2021/10/01 12:07:20;;;;;;;1.02;0.70;;;;;;;24.62;32.86;95717.34;4948794;28;20130;-74
2021/10/01 12:10:05;;;;;;;2.50;0.70;;;;;;;24.77;32.80;95707.28;4947582;28;20128;-74
2021/10/01 12:12:30;;;;;;;1.48;0.50;;;;;;;24.46;32.08;95714.91;4966250;28;20035;-75
2021/10/01 12:14:56;;;;;;;0.85;0.60;;;;;;;24.64;32.18;95699.47;4953505;28;20039;-77
2021/10/01 12:17:22;;;;;;;1.17;0.80;;;;;;;24.95;32.30;95702.72;4953007;28;20042;-82
2021/10/01 12:19:47;;;;;;;1.83;0.80;;;;;;;24.86;32.37;95686.75;4940347;28;20187;-75
2021/10/01 12:22:15;;;;;;;0.63;0.63;;;;;;;25.08;31.79;95697.72;4948983;28;20039;-76
2021/10/01 12:24:43;;;;;;;1.15;0.77;;;;;;;25.17;32.32;95700.88;4952868;28;20035;-75
2021/10/01 12:27:09;;;;;;;4.15;1.00;;;;;;;24.94;30.82;95679.41;4948782;28;20083;-75
2021/10/01 12:29:45;;;;;;;1.08;0.77;;;;;;;25.18;31.37;95694.25;4934856;28;20035;-74
2021/10/01 12:32:11;;;;;;;0.88;0.85;;;;;;;25.31;30.92;95676.41;4954202;29;20034;-74
2021/10/01 12:34:57;;;;;;;0.88;0.60;;;;;;;25.25;29.95;95671.75;4967844;28;20043;-76
2021/10/01 12:37:26;;;;;;;1.23;0.70;;;;;;;25.34;30.17;95672.94;4952864;28;20104;-76
2021/10/01 12:39:56;;;;;;;1.42;0.80;;;;;;;25.42;30.27;95663.59;4951173;28;20039;-76
2021/10/01 12:42:30;;;;;;;0.95;0.70;;;;;;;25.50;31.01;95669.06;4952756;28;20130;-75
2021/10/01 12:45:20;;;;;;;0.80;0.80;;;;;;;25.51;31.02;95652.34;4950285;28;20078;-75
2021/10/01 12:47:47;;;;;;;2.55;0.80;;;;;;;25.56;30.91;95651.16;4933876;28;20541;-76
2021/10/01 12:50:18;;;;;;;0.50;0.50;;;;;;;25.65;30.74;95673.38;4952511;29;20030;-76
2021/10/01 12:52:55;;;;;;;1.42;0.70;;;;;;;24.75;31.16;95666.09;4952410;28;20067;-76
2021/10/01 12:55:21;;;;;;;1.95;0.70;;;;;;;24.96;31.41;95649.06;4937070;28;20035;-78
2021/10/01 12:57:48;;;;;;;1.15;0.80;;;;;;;25.26;31.14;95663.19;4945307;28;20512;-74
2021/10/01 13:00:19;;;;;;;2.13;0.80;;;;;;;24.26;32.26;95656.50;4952430;28;20089;-77
2021/10/01 13:02:53;;;;;;;0.98;0.70;;;;;;;24.88;31.69;95642.84;4953686;28;20502;-80
2021/10/01 13:05:21;;;;;;;0.90;0.70;;;;;;;25.56;31.72;95646.50;4954863;28;20027;-75
2021/10/01 13:08:13;;;;;;;1.52;0.63;;;;;;;25.81;30.68;95649.25;4953197;28;20043;-77
2021/10/01 13:10:59;;;;;;;0.85;0.60;;;;;;;25.35;30.45;95644.53;4953022;28;20114;-77
2021/10/01 13:13:28;;;;;;;0.52;0.52;;;;;;;25.13;30.66;95643.72;4949932;28;20039;-77
2021/10/01 13:15:56;;;;;;;1.50;0.60;;;;;;;25.50;30.38;95631.72;4946126;28;20063;-79